createdAt,value
2022-11-05T00:00:14.164Z,9.93
2022-11-05T00:02:59.903Z,9.93
2022-11-05T00:05:46.289Z,11.00
2022-11-05T00:08:32.538Z,9.20
2022-11-05T00:11:02.154Z,10.17
2022-11-05T00:13:47.613Z,10.50
2022-11-05T00:16:35.363Z,9.63
2022-11-05T00:19:10.088Z,10.33
2022-11-05T00:21:57.478Z,9.47
2022-11-05T00:24:43.535Z,10.50
2022-11-05T00:27:12.904Z,10.03
2022-11-05T00:29:40.917Z,9.20
2022-11-05T00:32:09.112Z,9.87
2022-11-05T00:34:37.109Z,10.13
2022-11-05T00:37:05.264Z,9.60
2022-11-05T00:39:33.303Z,9.43
2022-11-05T00:42:18.740Z,9.70
2022-11-05T00:45:03.306Z,9.77
2022-11-05T00:48:02.270Z,9.40
2022-11-05T00:50:31.508Z,9.60
2022-11-05T00:53:02.050Z,9.37
2022-11-05T00:55:35.181Z,9.23
2022-11-05T00:58:05.913Z,10.00
2022-11-05T01:00:37.860Z,9.77
2022-11-05T01:03:09.645Z,9.63
2022-11-05T01:05:44.189Z,9.63
2022-11-05T01:08:12.456Z,9.23
2022-11-05T01:10:44.927Z,9.23
2022-11-05T01:13:17.649Z,9.20
2022-11-05T01:15:48.609Z,9.87
2022-11-05T01:18:16.622Z,9.90
2022-11-05T01:20:45.010Z,9.57
2022-11-05T01:23:13.910Z,10.33
2022-11-05T01:25:42.698Z,9.43
2022-11-05T01:28:11.533Z,9.70
2022-11-05T01:30:39.875Z,9.73
2022-11-05T01:33:09.614Z,10.10
2022-11-05T01:35:37.841Z,10.27
2022-11-05T01:38:05.827Z,10.37
2022-11-05T01:40:33.841Z,11.07
2022-11-05T01:43:01.860Z,10.67
2022-11-05T01:45:30.307Z,10.27
2022-11-05T01:48:14.909Z,9.70
2022-11-05T01:50:50.855Z,11.00
2022-11-05T01:53:30.396Z,10.83
2022-11-05T01:56:04.308Z,11.37
2022-11-05T01:58:42.392Z,12.03
2022-11-05T02:01:10.601Z,10.37
2022-11-05T02:03:40.957Z,12.03
2022-11-05T02:06:09.771Z,11.20
2022-11-05T02:08:56.949Z,11.93
2022-11-05T02:11:25.870Z,10.93
2022-11-05T02:13:53.948Z,10.70
2022-11-05T02:16:38.648Z,11.40
2022-11-05T02:19:52.380Z,11.13
2022-11-05T02:23:06.891Z,10.57
2022-11-05T02:26:31.532Z,10.90
2022-11-05T02:30:04.073Z,10.57
2022-11-05T02:33:10.728Z,11.40
2022-11-05T02:36:02.108Z,11.20
2022-11-05T02:38:44.015Z,10.90
2022-11-05T02:41:25.008Z,10.73
2022-11-05T02:44:13.283Z,11.53
2022-11-05T02:46:49.422Z,11.50
2022-11-05T02:49:34.517Z,10.90
2022-11-05T02:52:10.268Z,10.47
2022-11-05T02:54:45.244Z,10.53
2022-11-05T02:57:13.390Z,10.27
2022-11-05T02:59:41.361Z,11.30
2022-11-05T03:02:09.693Z,10.50
2022-11-05T03:04:39.470Z,11.33
2022-11-05T03:07:45.629Z,10.80
2022-11-05T03:10:37.555Z,10.37
2022-11-05T03:13:15.972Z,10.20
2022-11-05T03:15:59.356Z,10.43
2022-11-05T03:18:39.494Z,10.90
2022-11-05T03:21:16.827Z,10.07
2022-11-05T03:23:53.574Z,10.03
2022-11-05T03:26:30.258Z,10.63
2022-11-05T03:29:07.071Z,10.50
2022-11-05T03:31:38.085Z,10.03
2022-11-05T03:34:09.044Z,10.03
2022-11-05T03:36:42.793Z,9.57
2022-11-05T03:39:18.684Z,10.60
2022-11-05T03:41:53.032Z,10.03
2022-11-05T03:44:28.812Z,10.57
2022-11-05T03:47:05.440Z,10.47
2022-11-05T03:49:40.691Z,10.90
2022-11-05T03:52:17.370Z,9.67
2022-11-05T03:54:46.478Z,10.23
2022-11-05T03:57:21.512Z,10.03
2022-11-05T03:59:52.069Z,10.30
2022-11-05T04:02:25.578Z,10.10
2022-11-05T04:04:55.098Z,9.93
2022-11-05T04:07:41.989Z,9.10
2022-11-05T04:10:28.445Z,8.97
2022-11-05T04:13:14.059Z,9.47
2022-11-05T04:15:56.098Z,9.83
2022-11-05T04:18:24.193Z,10.20
2022-11-05T04:21:09.600Z,9.43
2022-11-05T04:23:56.523Z,9.33
2022-11-05T04:26:24.537Z,10.20
2022-11-05T04:29:10.267Z,10.17
2022-11-05T04:31:38.334Z,10.20
2022-11-05T04:34:06.961Z,10.67
2022-11-05T04:36:34.952Z,13.80
2022-11-05T04:39:04.362Z,14.00
2022-11-05T04:41:32.362Z,12.83
2022-11-05T04:44:00.344Z,11.77
2022-11-05T04:46:28.315Z,11.30
2022-11-05T04:48:56.346Z,10.17
2022-11-05T04:51:24.352Z,9.67
2022-11-05T04:53:52.375Z,12.23
2022-11-05T04:56:25.223Z,12.17
2022-11-05T04:58:53.440Z,11.80
2022-11-05T05:01:25.217Z,11.60
2022-11-05T05:03:55.606Z,10.73
2022-11-05T05:06:24.147Z,10.47
2022-11-05T05:08:53.005Z,9.50
2022-11-05T05:11:23.783Z,9.33
2022-11-05T05:13:51.929Z,9.80
2022-11-05T05:16:23.218Z,9.77
2022-11-05T05:18:52.022Z,9.90
2022-11-05T05:21:40.466Z,10.43
2022-11-05T05:24:11.693Z,9.73
2022-11-05T05:26:45.049Z,8.83
2022-11-05T05:29:14.504Z,9.20
2022-11-05T05:31:43.032Z,8.93
2022-11-05T05:34:13.975Z,8.63
2022-11-05T05:36:42.327Z,9.53
2022-11-05T05:39:11.730Z,8.83
2022-11-05T05:41:41.117Z,8.97
2022-11-05T05:44:09.121Z,9.27
2022-11-05T05:46:37.163Z,8.50
2022-11-05T05:49:11.073Z,9.10
2022-11-05T05:51:40.292Z,8.40
2022-11-05T05:54:08.345Z,8.60
2022-11-05T05:56:36.361Z,8.03
2022-11-05T05:59:07.229Z,8.80
2022-11-05T06:01:35.545Z,8.37
2022-11-05T06:04:03.860Z,8.73
2022-11-05T06:06:32.218Z,8.50
2022-11-05T06:09:00.351Z,9.73
2022-11-05T06:11:28.395Z,10.17
2022-11-05T06:13:56.427Z,9.63
2022-11-05T06:16:25.798Z,9.17
2022-11-05T06:18:53.775Z,8.80
2022-11-05T06:21:21.778Z,8.63
2022-11-05T06:23:49.847Z,8.93
2022-11-05T06:26:20.060Z,8.80
2022-11-05T06:28:48.094Z,8.57
2022-11-05T06:31:17.611Z,8.00
2022-11-05T06:33:47.206Z,8.57
2022-11-05T06:36:17.344Z,8.13
2022-11-05T06:38:45.450Z,9.57
2022-11-05T06:41:13.616Z,10.80
2022-11-05T06:43:42.210Z,14.70
2022-11-05T06:46:11.686Z,15.03
2022-11-05T06:48:40.492Z,16.37
2022-11-05T06:51:10.749Z,16.60
2022-11-05T06:53:38.760Z,15.87
2022-11-05T06:56:08.766Z,15.03
2022-11-05T06:58:37.359Z,12.50
2022-11-05T07:01:09.023Z,11.67
2022-11-05T07:03:38.926Z,11.33
2022-11-05T07:06:09.263Z,10.40
2022-11-05T07:08:38.987Z,10.47
2022-11-05T07:11:07.489Z,9.33
2022-11-05T07:13:35.576Z,10.23
2022-11-05T07:16:03.628Z,9.70
2022-11-05T07:18:31.636Z,10.53
2022-11-05T07:21:00.992Z,10.10
2022-11-05T07:23:30.490Z,10.73
2022-11-05T07:26:00.293Z,10.07
2022-11-05T07:28:28.308Z,10.27
2022-11-05T07:30:56.280Z,9.53
2022-11-05T07:33:24.260Z,9.50
2022-11-05T07:35:52.281Z,10.67
2022-11-05T07:38:20.360Z,11.53
2022-11-05T07:40:49.743Z,11.60
2022-11-05T07:43:17.803Z,13.10
2022-11-05T07:45:47.180Z,13.57
2022-11-05T07:48:15.145Z,12.53
2022-11-05T07:50:43.197Z,11.83
2022-11-05T07:53:13.801Z,11.80
2022-11-05T07:55:43.362Z,11.93
2022-11-05T07:58:13.944Z,12.67
2022-11-05T08:00:42.315Z,12.03
2022-11-05T08:03:14.803Z,11.83
2022-11-05T08:05:46.902Z,11.27
2022-11-05T08:08:17.719Z,11.00
2022-11-05T08:10:46.550Z,10.63
2022-11-05T08:13:16.667Z,10.53
2022-11-05T08:15:45.603Z,10.20
2022-11-05T08:18:16.460Z,10.20
2022-11-05T08:20:46.742Z,10.47
2022-11-05T08:23:15.415Z,10.90
2022-11-05T08:25:43.526Z,9.67
2022-11-05T08:28:15.092Z,9.77
2022-11-05T08:30:43.513Z,10.53
2022-11-05T08:33:14.219Z,10.10
2022-11-05T08:35:42.496Z,9.43
2022-11-05T08:38:15.043Z,8.20
2022-11-05T08:40:45.627Z,7.20
2022-11-05T08:43:15.853Z,7.63
2022-11-05T08:45:44.020Z,7.50
2022-11-05T08:48:15.387Z,7.40
2022-11-05T08:50:44.536Z,7.20
2022-11-05T08:53:13.848Z,7.23
2022-11-05T08:55:42.324Z,6.40
2022-11-05T08:58:15.015Z,6.67
2022-11-05T09:00:46.939Z,6.50
2022-11-05T09:03:15.417Z,5.93
2022-11-05T09:05:44.180Z,6.50
2022-11-05T09:08:15.239Z,6.23
2022-11-05T09:10:44.799Z,5.40
2022-11-05T09:13:18.934Z,5.93
2022-11-05T09:15:50.032Z,6.50
2022-11-05T09:18:20.349Z,5.50
2022-11-05T09:20:48.551Z,5.97
2022-11-05T09:23:16.940Z,6.37
2022-11-05T09:25:45.836Z,5.17
2022-11-05T09:28:17.358Z,4.77
2022-11-05T09:30:49.652Z,4.20
2022-11-05T09:33:19.529Z,4.73
2022-11-05T09:35:48.533Z,5.75
2022-11-05T09:38:16.697Z,5.07
2022-11-05T09:40:58.561Z,5.20
2022-11-05T09:43:34.171Z,4.63
2022-11-05T09:46:13.386Z,4.80
2022-11-05T09:48:46.392Z,5.27
2022-11-05T09:51:23.445Z,4.40
2022-11-05T09:53:53.442Z,5.10
2022-11-05T09:56:25.123Z,4.93
2022-11-05T09:59:01.758Z,5.13
2022-11-05T10:01:37.121Z,5.67
2022-11-05T10:04:14.311Z,4.83
2022-11-05T10:06:50.792Z,4.40
2022-11-05T10:09:26.240Z,4.40
2022-11-05T10:11:59.283Z,4.57
2022-11-05T10:14:33.127Z,4.80
2022-11-05T10:17:12.703Z,4.47
2022-11-05T10:19:47.305Z,4.18
2022-11-05T10:22:19.288Z,3.40
2022-11-05T10:24:49.912Z,4.53
2022-11-05T10:27:24.952Z,4.80
2022-11-05T10:29:53.318Z,4.07
2022-11-05T10:32:31.410Z,4.70
2022-11-05T10:35:02.696Z,4.32
2022-11-05T10:37:35.835Z,4.50
2022-11-05T10:40:20.731Z,4.38
2022-11-05T10:43:04.422Z,4.10
2022-11-05T10:45:47.239Z,3.67
2022-11-05T10:48:43.439Z,3.28
2022-11-05T10:51:13.674Z,3.17
2022-11-05T10:54:00.521Z,3.42
2022-11-05T10:56:36.534Z,2.45
2022-11-05T10:59:12.012Z,2.80
2022-11-05T11:01:41.372Z,2.35
2022-11-05T11:04:21.341Z,2.10
2022-11-05T11:06:52.266Z,2.10
2022-11-05T11:09:25.965Z,2.47
2022-11-05T11:12:06.231Z,2.65
2022-11-05T11:14:35.158Z,2.50
2022-11-05T11:17:28.725Z,2.20
2022-11-05T11:20:23.538Z,2.65
2022-11-05T11:23:03.553Z,2.25
2022-11-05T11:25:41.434Z,2.10
2022-11-05T11:28:23.767Z,2.17
2022-11-05T11:30:58.062Z,2.20
2022-11-05T11:33:29.473Z,3.17
2022-11-05T11:35:59.477Z,2.38
2022-11-05T11:38:32.492Z,2.10
2022-11-05T11:41:27.867Z,2.72
2022-11-05T11:44:03.289Z,2.30
2022-11-05T11:46:35.418Z,2.67
2022-11-05T11:49:04.727Z,3.10
2022-11-05T11:51:40.496Z,2.58
2022-11-05T11:54:24.854Z,2.92
2022-11-05T11:56:56.689Z,2.70
2022-11-05T11:59:53.839Z,2.70
2022-11-05T12:02:45.800Z,2.08
2022-11-05T12:05:37.382Z,2.20
2022-11-05T12:08:27.696Z,2.00
2022-11-05T12:11:06.205Z,2.15
2022-11-05T12:14:04.201Z,2.30
2022-11-05T12:17:07.288Z,2.22
2022-11-05T12:20:21.600Z,1.90
2022-11-05T12:23:25.385Z,2.20
2022-11-05T12:26:04.764Z,2.55
2022-11-05T12:29:18.444Z,1.95
2022-11-05T12:32:04.053Z,2.72
2022-11-05T12:34:55.639Z,1.92
2022-11-05T12:37:36.737Z,2.53
2022-11-05T12:40:39.692Z,2.00
2022-11-05T12:43:20.841Z,1.80
2022-11-05T12:45:58.547Z,1.98
2022-11-05T12:48:46.166Z,10.82
2022-11-05T12:51:33.867Z,2.55
2022-11-05T12:54:20.967Z,1.88
2022-11-05T12:56:56.626Z,1.73
2022-11-05T12:59:32.411Z,1.75
2022-11-05T13:02:17.743Z,1.65
2022-11-05T13:04:54.035Z,1.60
2022-11-05T13:07:30.869Z,1.80
2022-11-05T13:10:06.285Z,1.50
2022-11-05T13:12:42.548Z,1.70
2022-11-05T13:15:27.577Z,1.52
2022-11-05T13:18:02.624Z,2.22
2022-11-05T13:20:34.701Z,1.73
2022-11-05T13:23:15.552Z,2.10
2022-11-05T13:25:52.638Z,2.20
2022-11-05T13:28:36.396Z,2.08
2022-11-05T13:31:13.469Z,1.65
2022-11-05T13:33:47.347Z,2.20
2022-11-05T13:36:40.608Z,7.55
2022-11-05T13:39:20.939Z,1.70
2022-11-05T13:42:10.630Z,1.38
2022-11-05T13:45:18.307Z,2.00
2022-11-05T13:48:21.987Z,1.65
2022-11-05T13:51:24.145Z,1.50
2022-11-05T13:54:33.522Z,1.53
2022-11-05T13:57:41.600Z,1.73
2022-11-05T14:00:21.926Z,2.03
2022-11-05T14:02:56.300Z,1.70
2022-11-05T14:05:31.645Z,1.87
2022-11-05T14:08:03.260Z,1.70
2022-11-05T14:10:39.974Z,1.98
2022-11-05T14:13:21.678Z,1.60
2022-11-05T14:16:06.452Z,1.70
2022-11-05T14:18:45.482Z,1.83
2022-11-05T14:21:47.249Z,2.00
2022-11-05T14:24:44.096Z,1.67
2022-11-05T14:27:43.539Z,1.80
2022-11-05T14:30:41.935Z,2.07
2022-11-05T14:33:32.962Z,2.03
2022-11-05T14:36:35.721Z,2.43
2022-11-05T14:39:20.779Z,2.40
2022-11-05T14:42:12.632Z,2.63
2022-11-05T14:44:59.793Z,2.57
2022-11-05T14:47:32.751Z,2.40
2022-11-05T14:50:11.453Z,2.20
2022-11-05T14:52:41.951Z,2.37
2022-11-05T14:55:30.469Z,2.50
2022-11-05T14:58:29.101Z,2.45
2022-11-05T15:00:58.763Z,2.30
2022-11-05T15:04:00.868Z,2.23
2022-11-05T15:06:34.628Z,2.40
2022-11-05T15:09:30.648Z,2.83
2022-11-05T15:12:20.390Z,2.30
2022-11-05T15:14:58.106Z,2.70
2022-11-05T15:17:31.294Z,2.50
2022-11-05T15:20:10.385Z,2.40
2022-11-05T15:22:44.754Z,2.10
2022-11-05T15:25:24.262Z,2.20
2022-11-05T15:28:11.144Z,2.70
2022-11-05T15:30:39.302Z,2.50
2022-11-05T15:33:19.623Z,4.23
2022-11-05T15:35:47.612Z,5.03
2022-11-05T15:38:33.991Z,5.73
2022-11-05T15:41:05.843Z,5.33
2022-11-05T15:43:34.413Z,6.33
2022-11-05T15:46:07.132Z,5.87
2022-11-05T15:48:36.977Z,4.50
2022-11-05T15:51:05.378Z,4.70
2022-11-05T15:54:16.099Z,5.07
2022-11-05T15:56:52.670Z,4.67
2022-11-05T15:59:23.243Z,3.90
2022-11-05T16:01:56.305Z,4.07
2022-11-05T16:04:28.789Z,3.70
2022-11-05T16:07:02.143Z,4.33
2022-11-05T16:09:35.178Z,5.03
2022-11-05T16:12:30.870Z,5.20
2022-11-05T16:15:04.358Z,4.93
2022-11-05T16:17:47.281Z,4.40
2022-11-05T16:20:27.260Z,4.30
2022-11-05T16:22:58.477Z,4.40
2022-11-05T16:25:40.547Z,4.67
2022-11-05T16:28:23.328Z,4.93
2022-11-05T16:30:57.604Z,5.17
2022-11-05T16:33:28.572Z,6.20
2022-11-05T16:35:56.631Z,5.77
2022-11-05T16:38:25.655Z,5.53
2022-11-05T16:40:55.022Z,5.63
2022-11-05T16:43:25.941Z,5.40
2022-11-05T16:45:56.405Z,5.90
2022-11-05T16:48:25.102Z,6.43
2022-11-05T16:50:53.223Z,6.17
2022-11-05T16:53:21.333Z,6.40
2022-11-05T16:55:49.702Z,6.37
2022-11-05T16:58:23.553Z,6.33
2022-11-05T17:00:56.643Z,7.10
2022-11-05T17:03:24.698Z,7.17
2022-11-05T17:05:52.698Z,8.80
2022-11-05T17:08:20.682Z,9.40
2022-11-05T17:10:48.794Z,9.10
2022-11-05T17:13:19.972Z,9.77
2022-11-05T17:15:50.649Z,9.83
2022-11-05T17:18:19.752Z,10.30
2022-11-05T17:20:50.515Z,10.77
2022-11-05T17:23:21.431Z,12.00
2022-11-05T17:25:52.778Z,11.13
2022-11-05T17:28:23.138Z,11.43
2022-11-05T17:30:53.190Z,12.90
2022-11-05T17:33:23.448Z,13.07
2022-11-05T17:35:52.578Z,14.83
2022-11-05T17:38:21.621Z,20.00
2022-11-05T17:40:50.060Z,14.63
2022-11-05T17:43:18.312Z,15.00
2022-11-05T17:45:51.801Z,22.73
2022-11-05T17:48:21.255Z,14.97
2022-11-05T17:50:51.554Z,15.63
2022-11-05T17:53:20.793Z,21.73
2022-11-05T17:55:49.573Z,22.93
2022-11-05T17:58:17.582Z,22.63
2022-11-05T18:00:48.498Z,19.37
2022-11-05T18:03:16.860Z,16.87
2022-11-05T18:05:45.000Z,14.67
2022-11-05T18:08:13.215Z,14.50
2022-11-05T18:10:42.469Z,13.83
2022-11-05T18:13:12.197Z,14.13
2022-11-05T18:15:41.279Z,14.30
2022-11-05T18:18:10.946Z,15.20
2022-11-05T18:20:39.149Z,14.10
2022-11-05T18:23:07.154Z,15.27
2022-11-05T18:25:35.133Z,14.57
2022-11-05T18:28:03.617Z,14.53
2022-11-05T18:30:31.672Z,15.63
2022-11-05T18:32:59.750Z,13.83
2022-11-05T18:35:29.172Z,14.80
2022-11-05T18:37:57.203Z,14.93
2022-11-05T18:40:25.199Z,14.70
2022-11-05T18:42:53.199Z,14.43
2022-11-05T18:45:25.534Z,13.70
2022-11-05T18:47:56.608Z,15.07
2022-11-05T18:50:24.621Z,14.20
2022-11-05T18:52:54.032Z,13.50
2022-11-05T18:55:22.543Z,18.03
2022-11-05T18:57:50.579Z,22.07
2022-11-05T19:00:19.005Z,28.27
2022-11-05T19:02:47.174Z,35.60
2022-11-05T19:05:28.521Z,40.47
2022-11-05T19:07:58.769Z,42.37
2022-11-05T19:10:28.303Z,39.30
2022-11-05T19:12:56.492Z,40.33
2022-11-05T19:15:24.543Z,38.30
2022-11-05T19:17:52.553Z,34.73
2022-11-05T19:20:20.759Z,32.60
2022-11-05T19:22:48.834Z,29.30
2022-11-05T19:25:18.341Z,25.67
2022-11-05T19:27:46.358Z,22.87
2022-11-05T19:30:14.563Z,20.37
2022-11-05T19:32:42.622Z,19.50
2022-11-05T19:35:10.850Z,17.43
2022-11-05T19:37:38.862Z,14.90
2022-11-05T19:40:09.097Z,11.13
2022-11-05T19:42:38.539Z,10.80
2022-11-05T19:45:30.381Z,10.57
2022-11-05T19:47:56.157Z,9.27
2022-11-05T19:50:24.190Z,10.00
2022-11-05T19:52:52.219Z,9.00
2022-11-05T19:55:20.363Z,9.23
2022-11-05T19:57:49.826Z,10.27
2022-11-05T20:00:18.711Z,9.73
2022-11-05T20:02:47.855Z,11.70
2022-11-05T20:05:18.042Z,10.83
2022-11-05T20:07:52.335Z,10.93
2022-11-05T20:10:21.093Z,11.20
2022-11-05T20:12:53.284Z,11.53
2022-11-05T20:15:21.592Z,11.53
2022-11-05T20:17:51.237Z,12.43
2022-11-05T20:20:20.525Z,13.03
2022-11-05T20:22:48.623Z,12.93
2022-11-05T20:25:16.771Z,12.43
2022-11-05T20:27:44.791Z,11.97
2022-11-05T20:30:14.441Z,12.43
2022-11-05T20:32:42.495Z,12.13
2022-11-05T20:35:11.186Z,12.20
2022-11-05T20:37:39.200Z,12.47
2022-11-05T20:40:08.811Z,13.07
2022-11-05T20:42:37.833Z,13.60
2022-11-05T20:45:11.655Z,13.53
2022-11-05T20:47:43.631Z,14.13
2022-11-05T20:50:11.627Z,15.07
2022-11-05T20:52:40.369Z,14.50
2022-11-05T20:55:09.997Z,14.33
2022-11-05T20:57:38.803Z,14.00
2022-11-05T21:00:09.275Z,13.37
2022-11-05T21:02:41.857Z,11.83
2022-11-05T21:05:10.531Z,12.67
2022-11-05T21:07:38.557Z,11.43
2022-11-05T21:10:07.652Z,12.33
2022-11-05T21:12:35.652Z,11.10
2022-11-05T21:15:03.703Z,11.37
2022-11-05T21:17:31.735Z,11.87
2022-11-05T21:20:01.101Z,11.33
2022-11-05T21:22:29.099Z,11.20
2022-11-05T21:24:58.062Z,11.97
2022-11-05T21:27:26.153Z,11.57
2022-11-05T21:29:54.143Z,10.97
2022-11-05T21:32:22.155Z,11.27
2022-11-05T21:34:50.100Z,10.60
2022-11-05T21:37:20.300Z,10.60
2022-11-05T21:39:48.333Z,10.80
2022-11-05T21:42:16.363Z,11.53
2022-11-05T21:44:44.408Z,11.33
2022-11-05T21:47:12.840Z,11.30
2022-11-05T21:49:40.955Z,10.40
2022-11-05T21:52:29.525Z,10.17
2022-11-05T21:55:16.605Z,10.63
2022-11-05T21:58:02.236Z,9.73
2022-11-05T22:00:30.867Z,8.63
2022-11-05T22:03:00.009Z,9.37
2022-11-05T22:05:28.754Z,9.07
2022-11-05T22:07:56.801Z,9.77
2022-11-05T22:10:26.292Z,9.37
2022-11-05T22:12:54.445Z,9.60
2022-11-05T22:15:22.385Z,8.97
2022-11-05T22:17:51.487Z,8.67
2022-11-05T22:20:19.973Z,9.10
2022-11-05T22:22:48.017Z,8.90
2022-11-05T22:25:16.749Z,8.87
2022-11-05T22:27:46.158Z,9.07
2022-11-05T22:30:15.439Z,9.33
2022-11-05T22:32:43.534Z,8.20
2022-11-05T22:35:12.017Z,8.50
2022-11-05T22:37:40.193Z,9.03
2022-11-05T22:40:09.613Z,8.77
2022-11-05T22:42:37.829Z,9.13
2022-11-05T22:45:08.906Z,8.47
2022-11-05T22:47:37.304Z,8.20
2022-11-05T22:50:07.155Z,8.80
2022-11-05T22:52:35.146Z,8.47
2022-11-05T22:55:05.197Z,9.33
2022-11-05T22:57:33.503Z,7.93
2022-11-05T23:00:01.661Z,8.90
2022-11-05T23:02:31.363Z,8.43
2022-11-05T23:04:59.544Z,8.30
2022-11-05T23:07:45.036Z,8.10
2022-11-05T23:10:30.490Z,7.80
2022-11-05T23:12:58.468Z,8.33
2022-11-05T23:15:49.252Z,8.80
2022-11-05T23:18:36.056Z,8.87
2022-11-05T23:21:23.173Z,8.73
2022-11-05T23:24:06.736Z,8.47
2022-11-05T23:26:52.726Z,8.83
2022-11-05T23:29:23.612Z,8.87
2022-11-05T23:32:09.760Z,8.50
2022-11-05T23:34:39.894Z,7.87
2022-11-05T23:37:26.186Z,8.60
2022-11-05T23:39:54.303Z,8.50
2022-11-05T23:42:40.479Z,8.13
2022-11-05T23:45:27.483Z,8.10
2022-11-05T23:48:13.584Z,8.03
2022-11-05T23:50:44.532Z,8.13
2022-11-05T23:53:12.872Z,7.80
2022-11-05T23:55:40.993Z,7.93
2022-11-05T23:58:09.960Z,7.73
